sensor_id;sensor_type;location;lat;lon;timestamp;P1;durP1;ratioP1;P2;durP2;ratioP2
8177;SDS011;4130;48.740;9.132;2022-07-06T00:02:12;1.70;;;1.60;;
8177;SDS011;4130;48.740;9.132;2022-07-06T00:04:39;2.43;;;1.90;;
8177;SDS011;4130;48.740;9.132;2022-07-06T00:07:06;2.67;;;2.30;;
8177;SDS011;4130;48.740;9.132;2022-07-06T00:09:34;2.07;;;1.87;;
8177;SDS011;4130;48.740;9.132;2022-07-06T00:12:01;2.10;;;1.60;;
8177;SDS011;4130;48.740;9.132;2022-07-06T00:14:28;1.85;;;1.60;;
8177;SDS011;4130;48.740;9.132;2022-07-06T00:16:54;4.77;;;1.80;;
8177;SDS011;4130;48.740;9.132;2022-07-06T00:19:21;1.97;;;1.60;;
8177;SDS011;4130;48.740;9.132;2022-07-06T00:21:48;2.53;;;1.80;;
8177;SDS011;4130;48.740;9.132;2022-07-06T00:24:15;2.20;;;1.97;;
8177;SDS011;4130;48.740;9.132;2022-07-06T00:26:44;1.80;;;1.70;;
8177;SDS011;4130;48.740;9.132;2022-07-06T00:29:11;1.60;;;1.50;;
8177;SDS011;4130;48.740;9.132;2022-07-06T00:31:37;5.87;;;2.03;;
8177;SDS011;4130;48.740;9.132;2022-07-06T00:34:04;2.27;;;1.80;;
8177;SDS011;4130;48.740;9.132;2022-07-06T00:36:31;2.23;;;1.90;;
8177;SDS011;4130;48.740;9.132;2022-07-06T00:38:58;2.00;;;1.80;;
8177;SDS011;4130;48.740;9.132;2022-07-06T00:41:25;2.57;;;1.80;;
8177;SDS011;4130;48.740;9.132;2022-07-06T00:43:53;1.77;;;1.67;;
8177;SDS011;4130;48.740;9.132;2022-07-06T00:46:27;2.10;;;1.90;;
8177;SDS011;4130;48.740;9.132;2022-07-06T00:48:54;2.20;;;1.60;;
8177;SDS011;4130;48.740;9.132;2022-07-06T00:51:22;3.30;;;1.93;;
8177;SDS011;4130;48.740;9.132;2022-07-06T00:53:51;3.80;;;1.80;;
8177;SDS011;4130;48.740;9.132;2022-07-06T00:56:21;2.57;;;1.73;;
8177;SDS011;4130;48.740;9.132;2022-07-06T00:58:48;1.90;;;1.80;;
8177;SDS011;4130;48.740;9.132;2022-07-06T01:01:16;4.50;;;1.83;;
8177;SDS011;4130;48.740;9.132;2022-07-06T01:03:43;1.77;;;1.67;;
8177;SDS011;4130;48.740;9.132;2022-07-06T01:06:10;2.00;;;1.90;;
8177;SDS011;4130;48.740;9.132;2022-07-06T01:08:37;2.77;;;1.80;;
8177;SDS011;4130;48.740;9.132;2022-07-06T01:11:04;2.07;;;1.83;;
8177;SDS011;4130;48.740;9.132;2022-07-06T01:13:31;2.07;;;1.87;;
8177;SDS011;4130;48.740;9.132;2022-07-06T01:15:59;2.47;;;1.80;;
8177;SDS011;4130;48.740;9.132;2022-07-06T01:18:27;3.07;;;1.90;;
8177;SDS011;4130;48.740;9.132;2022-07-06T01:21:06;2.57;;;1.80;;
8177;SDS011;4130;48.740;9.132;2022-07-06T01:23:38;5.30;;;2.17;;
8177;SDS011;4130;48.740;9.132;2022-07-06T01:26:05;1.97;;;1.63;;
8177;SDS011;4130;48.740;9.132;2022-07-06T01:28:32;2.40;;;1.97;;
8177;SDS011;4130;48.740;9.132;2022-07-06T01:30:58;2.47;;;1.80;;
8177;SDS011;4130;48.740;9.132;2022-07-06T01:33:25;2.60;;;1.97;;
8177;SDS011;4130;48.740;9.132;2022-07-06T01:35:52;3.53;;;2.10;;
8177;SDS011;4130;48.740;9.132;2022-07-06T01:38:20;2.00;;;1.80;;
8177;SDS011;4130;48.740;9.132;2022-07-06T01:40:47;2.37;;;1.63;;
8177;SDS011;4130;48.740;9.132;2022-07-06T01:43:14;2.27;;;1.80;;
8177;SDS011;4130;48.740;9.132;2022-07-06T01:45:40;3.40;;;1.67;;
8177;SDS011;4130;48.740;9.132;2022-07-06T01:48:07;2.03;;;1.80;;
8177;SDS011;4130;48.740;9.132;2022-07-06T01:50:34;2.03;;;1.93;;
8177;SDS011;4130;48.740;9.132;2022-07-06T01:53:01;1.80;;;1.70;;
8177;SDS011;4130;48.740;9.132;2022-07-06T01:55:29;2.33;;;1.70;;
8177;SDS011;4130;48.740;9.132;2022-07-06T01:57:56;4.67;;;2.20;;
8177;SDS011;4130;48.740;9.132;2022-07-06T02:00:23;1.70;;;1.60;;
8177;SDS011;4130;48.740;9.132;2022-07-06T02:02:49;2.03;;;1.40;;
8177;SDS011;4130;48.740;9.132;2022-07-06T02:05:16;3.07;;;1.80;;
8177;SDS011;4130;48.740;9.132;2022-07-06T02:07:43;2.73;;;1.90;;
8177;SDS011;4130;48.740;9.132;2022-07-06T02:10:10;1.93;;;1.80;;
8177;SDS011;4130;48.740;9.132;2022-07-06T02:12:38;2.70;;;1.83;;
8177;SDS011;4130;48.740;9.132;2022-07-06T02:15:05;1.60;;;1.50;;
8177;SDS011;4130;48.740;9.132;2022-07-06T02:17:33;2.37;;;1.50;;
8177;SDS011;4130;48.740;9.132;2022-07-06T02:19:59;1.73;;;1.63;;
8177;SDS011;4130;48.740;9.132;2022-07-06T02:22:26;2.87;;;1.70;;
8177;SDS011;4130;48.740;9.132;2022-07-06T02:24:53;2.00;;;1.90;;
8177;SDS011;4130;48.740;9.132;2022-07-06T02:27:20;1.73;;;1.50;;
8177;SDS011;4130;48.740;9.132;2022-07-06T02:29:48;2.17;;;1.90;;
8177;SDS011;4130;48.740;9.132;2022-07-06T02:32:15;2.13;;;1.57;;
8177;SDS011;4130;48.740;9.132;2022-07-06T02:34:42;2.80;;;1.77;;
8177;SDS011;4130;48.740;9.132;2022-07-06T02:37:09;1.80;;;1.70;;
8177;SDS011;4130;48.740;9.132;2022-07-06T02:39:36;2.00;;;1.80;;
8177;SDS011;4130;48.740;9.132;2022-07-06T02:42:03;3.80;;;1.70;;
8177;SDS011;4130;48.740;9.132;2022-07-06T02:44:30;2.07;;;1.83;;
8177;SDS011;4130;48.740;9.132;2022-07-06T02:46:58;1.90;;;1.70;;
8177;SDS011;4130;48.740;9.132;2022-07-06T02:49:25;1.70;;;1.60;;
8177;SDS011;4130;48.740;9.132;2022-07-06T02:51:51;1.93;;;1.80;;
8177;SDS011;4130;48.740;9.132;2022-07-06T02:54:18;1.80;;;1.70;;
8177;SDS011;4130;48.740;9.132;2022-07-06T02:56:45;2.90;;;1.93;;
8177;SDS011;4130;48.740;9.132;2022-07-06T02:59:17;2.60;;;1.87;;
8177;SDS011;4130;48.740;9.132;2022-07-06T03:01:44;2.10;;;1.80;;
8177;SDS011;4130;48.740;9.132;2022-07-06T03:04:12;2.97;;;1.90;;
8177;SDS011;4130;48.740;9.132;2022-07-06T03:06:38;2.03;;;1.80;;
8177;SDS011;4130;48.740;9.132;2022-07-06T03:09:05;1.77;;;1.67;;
8177;SDS011;4130;48.740;9.132;2022-07-06T03:11:32;3.10;;;2.67;;
8177;SDS011;4130;48.740;9.132;2022-07-06T03:14:01;2.40;;;2.20;;
8177;SDS011;4130;48.740;9.132;2022-07-06T03:16:28;2.50;;;2.30;;
8177;SDS011;4130;48.740;9.132;2022-07-06T03:18:54;2.53;;;2.10;;
8177;SDS011;4130;48.740;9.132;2022-07-06T03:21:23;2.20;;;2.00;;
8177;SDS011;4130;48.740;9.132;2022-07-06T03:23:50;2.10;;;2.00;;
8177;SDS011;4130;48.740;9.132;2022-07-06T03:26:16;2.03;;;1.87;;
8177;SDS011;4130;48.740;9.132;2022-07-06T03:28:43;3.60;;;2.00;;
8177;SDS011;4130;48.740;9.132;2022-07-06T03:31:10;3.00;;;2.10;;
8177;SDS011;4130;48.740;9.132;2022-07-06T03:33:36;2.30;;;1.97;;
8177;SDS011;4130;48.740;9.132;2022-07-06T03:36:03;2.37;;;2.10;;
8177;SDS011;4130;48.740;9.132;2022-07-06T03:38:32;3.20;;;2.10;;
8177;SDS011;4130;48.740;9.132;2022-07-06T03:40:59;2.80;;;2.20;;
8177;SDS011;4130;48.740;9.132;2022-07-06T03:43:26;2.60;;;2.40;;
8177;SDS011;4130;48.740;9.132;2022-07-06T03:45:52;2.80;;;2.20;;
8177;SDS011;4130;48.740;9.132;2022-07-06T03:48:19;2.43;;;2.23;;
8177;SDS011;4130;48.740;9.132;2022-07-06T03:50:46;3.73;;;2.17;;
8177;SDS011;4130;48.740;9.132;2022-07-06T03:53:13;3.57;;;2.20;;
8177;SDS011;4130;48.740;9.132;2022-07-06T03:55:41;2.73;;;2.10;;
8177;SDS011;4130;48.740;9.132;2022-07-06T03:58:08;3.00;;;2.28;;
8177;SDS011;4130;48.740;9.132;2022-07-06T04:00:34;4.67;;;2.30;;
8177;SDS011;4130;48.740;9.132;2022-07-06T04:03:01;2.30;;;2.10;;
8177;SDS011;4130;48.740;9.132;2022-07-06T04:05:28;2.47;;;2.13;;
8177;SDS011;4130;48.740;9.132;2022-07-06T04:07:55;5.40;;;2.23;;
8177;SDS011;4130;48.740;9.132;2022-07-06T04:10:21;2.60;;;2.07;;
8177;SDS011;4130;48.740;9.132;2022-07-06T04:12:50;2.93;;;2.27;;
8177;SDS011;4130;48.740;9.132;2022-07-06T04:15:16;2.60;;;2.40;;
8177;SDS011;4130;48.740;9.132;2022-07-06T04:17:43;2.23;;;1.97;;
8177;SDS011;4130;48.740;9.132;2022-07-06T04:20:19;4.47;;;2.27;;
8177;SDS011;4130;48.740;9.132;2022-07-06T04:22:46;5.00;;;2.77;;
8177;SDS011;4130;48.740;9.132;2022-07-06T04:25:13;3.70;;;2.67;;
8177;SDS011;4130;48.740;9.132;2022-07-06T04:27:40;3.47;;;2.40;;
8177;SDS011;4130;48.740;9.132;2022-07-06T04:30:09;2.37;;;2.17;;
8177;SDS011;4130;48.740;9.132;2022-07-06T04:32:36;2.83;;;2.50;;
8177;SDS011;4130;48.740;9.132;2022-07-06T04:35:03;20.90;;;4.23;;
8177;SDS011;4130;48.740;9.132;2022-07-06T04:37:31;3.03;;;2.70;;
8177;SDS011;4130;48.740;9.132;2022-07-06T04:39:58;2.67;;;2.40;;
8177;SDS011;4130;48.740;9.132;2022-07-06T04:42:25;3.17;;;2.50;;
8177;SDS011;4130;48.740;9.132;2022-07-06T04:44:52;2.87;;;2.60;;
8177;SDS011;4130;48.740;9.132;2022-07-06T04:47:20;5.03;;;2.53;;
8177;SDS011;4130;48.740;9.132;2022-07-06T04:49:46;2.43;;;2.27;;
8177;SDS011;4130;48.740;9.132;2022-07-06T04:52:13;5.17;;;2.60;;
8177;SDS011;4130;48.740;9.132;2022-07-06T04:54:40;2.80;;;2.60;;
8177;SDS011;4130;48.740;9.132;2022-07-06T04:57:07;3.00;;;2.70;;
8177;SDS011;4130;48.740;9.132;2022-07-06T04:59:34;3.60;;;2.70;;
8177;SDS011;4130;48.740;9.132;2022-07-06T05:02:00;2.80;;;2.60;;
8177;SDS011;4130;48.740;9.132;2022-07-06T05:04:29;5.00;;;2.70;;
8177;SDS011;4130;48.740;9.132;2022-07-06T05:06:55;4.20;;;2.57;;
8177;SDS011;4130;48.740;9.132;2022-07-06T05:09:22;2.93;;;2.23;;
8177;SDS011;4130;48.740;9.132;2022-07-06T05:11:49;5.13;;;2.50;;
8177;SDS011;4130;48.740;9.132;2022-07-06T05:14:16;3.60;;;2.60;;
8177;SDS011;4130;48.740;9.132;2022-07-06T05:16:43;3.07;;;2.47;;
8177;SDS011;4130;48.740;9.132;2022-07-06T05:19:09;3.83;;;2.57;;
8177;SDS011;4130;48.740;9.132;2022-07-06T05:21:37;3.83;;;2.70;;
8177;SDS011;4130;48.740;9.132;2022-07-06T05:24:04;3.80;;;2.67;;
8177;SDS011;4130;48.740;9.132;2022-07-06T05:26:32;2.87;;;2.50;;
8177;SDS011;4130;48.740;9.132;2022-07-06T05:28:58;3.83;;;2.57;;
8177;SDS011;4130;48.740;9.132;2022-07-06T05:31:25;2.43;;;2.27;;
8177;SDS011;4130;48.740;9.132;2022-07-06T05:33:52;3.10;;;2.50;;
8177;SDS011;4130;48.740;9.132;2022-07-06T05:36:19;3.37;;;2.20;;
8177;SDS011;4130;48.740;9.132;2022-07-06T05:38:47;3.03;;;2.67;;
8177;SDS011;4130;48.740;9.132;2022-07-06T05:41:13;3.67;;;2.70;;
8177;SDS011;4130;48.740;9.132;2022-07-06T05:43:40;2.93;;;2.50;;
8177;SDS011;4130;48.740;9.132;2022-07-06T05:46:07;2.53;;;2.13;;
8177;SDS011;4130;48.740;9.132;2022-07-06T05:48:34;3.10;;;2.40;;
8177;SDS011;4130;48.740;9.132;2022-07-06T05:51:18;5.93;;;2.40;;
8177;SDS011;4130;48.740;9.132;2022-07-06T05:53:46;5.87;;;2.47;;
8177;SDS011;4130;48.740;9.132;2022-07-06T05:56:13;3.40;;;2.27;;
8177;SDS011;4130;48.740;9.132;2022-07-06T05:58:40;2.60;;;2.40;;
8177;SDS011;4130;48.740;9.132;2022-07-06T06:01:07;3.00;;;2.10;;
8177;SDS011;4130;48.740;9.132;2022-07-06T06:03:35;4.40;;;2.10;;
8177;SDS011;4130;48.740;9.132;2022-07-06T06:06:02;6.25;;;2.40;;
8177;SDS011;4130;48.740;9.132;2022-07-06T06:08:28;6.72;;;2.20;;
8177;SDS011;4130;48.740;9.132;2022-07-06T06:10:56;3.08;;;2.33;;
8177;SDS011;4130;48.740;9.132;2022-07-06T06:13:23;3.85;;;2.38;;
8177;SDS011;4130;48.740;9.132;2022-07-06T06:15:50;2.57;;;2.23;;
8177;SDS011;4130;48.740;9.132;2022-07-06T06:18:17;4.20;;;2.40;;
8177;SDS011;4130;48.740;9.132;2022-07-06T06:20:44;4.85;;;2.10;;
8177;SDS011;4130;48.740;9.132;2022-07-06T06:23:11;3.75;;;2.20;;
8177;SDS011;4130;48.740;9.132;2022-07-06T06:25:39;2.60;;;2.15;;
8177;SDS011;4130;48.740;9.132;2022-07-06T06:28:07;4.85;;;2.30;;
8177;SDS011;4130;48.740;9.132;2022-07-06T06:30:35;2.65;;;2.10;;
8177;SDS011;4130;48.740;9.132;2022-07-06T06:33:06;3.20;;;2.30;;
8177;SDS011;4130;48.740;9.132;2022-07-06T06:35:34;8.45;;;2.28;;
8177;SDS011;4130;48.740;9.132;2022-07-06T06:38:01;2.03;;;1.80;;
8177;SDS011;4130;48.740;9.132;2022-07-06T06:40:28;3.08;;;2.13;;
8177;SDS011;4130;48.740;9.132;2022-07-06T06:42:55;5.22;;;2.20;;
8177;SDS011;4130;48.740;9.132;2022-07-06T06:45:23;2.58;;;2.03;;
8177;SDS011;4130;48.740;9.132;2022-07-06T06:47:50;4.38;;;2.38;;
8177;SDS011;4130;48.740;9.132;2022-07-06T06:50:16;3.60;;;1.88;;
8177;SDS011;4130;48.740;9.132;2022-07-06T06:52:43;2.00;;;1.75;;
8177;SDS011;4130;48.740;9.132;2022-07-06T06:55:10;2.55;;;1.80;;
8177;SDS011;4130;48.740;9.132;2022-07-06T06:57:37;3.25;;;1.77;;
8177;SDS011;4130;48.740;9.132;2022-07-06T07:00:04;2.78;;;1.70;;
8177;SDS011;4130;48.740;9.132;2022-07-06T07:02:33;4.97;;;2.22;;
8177;SDS011;4130;48.740;9.132;2022-07-06T07:05:00;3.67;;;2.10;;
8177;SDS011;4130;48.740;9.132;2022-07-06T07:07:27;4.25;;;2.22;;
8177;SDS011;4130;48.740;9.132;2022-07-06T07:09:54;2.53;;;1.83;;
8177;SDS011;4130;48.740;9.132;2022-07-06T07:12:20;1.92;;;1.60;;
8177;SDS011;4130;48.740;9.132;2022-07-06T07:14:47;5.07;;;1.90;;
8177;SDS011;4130;48.740;9.132;2022-07-06T07:17:14;2.70;;;1.73;;
8177;SDS011;4130;48.740;9.132;2022-07-06T07:19:42;3.30;;;1.90;;
8177;SDS011;4130;48.740;9.132;2022-07-06T07:22:09;2.63;;;1.75;;
8177;SDS011;4130;48.740;9.132;2022-07-06T07:24:36;2.17;;;1.65;;
8177;SDS011;4130;48.740;9.132;2022-07-06T07:27:03;5.18;;;1.90;;
8177;SDS011;4130;48.740;9.132;2022-07-06T07:29:30;3.08;;;1.80;;
8177;SDS011;4130;48.740;9.132;2022-07-06T07:31:57;3.33;;;1.85;;
8177;SDS011;4130;48.740;9.132;2022-07-06T07:34:24;3.00;;;1.50;;
8177;SDS011;4130;48.740;9.132;2022-07-06T07:36:52;1.92;;;1.75;;
8177;SDS011;4130;48.740;9.132;2022-07-06T07:39:19;1.60;;;1.50;;
8177;SDS011;4130;48.740;9.132;2022-07-06T07:41:46;2.33;;;1.50;;
8177;SDS011;4130;48.740;9.132;2022-07-06T07:44:15;1.98;;;1.55;;
8177;SDS011;4130;48.740;9.132;2022-07-06T07:46:42;2.47;;;1.70;;
8177;SDS011;4130;48.740;9.132;2022-07-06T07:49:08;2.03;;;1.70;;
8177;SDS011;4130;48.740;9.132;2022-07-06T07:51:35;1.67;;;1.40;;
8177;SDS011;4130;48.740;9.132;2022-07-06T07:54:03;1.70;;;1.60;;
8177;SDS011;4130;48.740;9.132;2022-07-06T07:56:31;1.42;;;1.30;;
8177;SDS011;4130;48.740;9.132;2022-07-06T07:58:57;2.50;;;1.73;;
8177;SDS011;4130;48.740;9.132;2022-07-06T08:01:24;1.60;;;1.50;;
8177;SDS011;4130;48.740;9.132;2022-07-06T08:03:51;1.67;;;1.50;;
8177;SDS011;4130;48.740;9.132;2022-07-06T08:06:17;2.10;;;1.40;;
8177;SDS011;4130;48.740;9.132;2022-07-06T08:08:44;3.00;;;1.70;;
8177;SDS011;4130;48.740;9.132;2022-07-06T08:11:12;1.85;;;1.27;;
8177;SDS011;4130;48.740;9.132;2022-07-06T08:13:39;2.00;;;1.50;;
8177;SDS011;4130;48.740;9.132;2022-07-06T08:16:06;2.22;;;1.60;;
8177;SDS011;4130;48.740;9.132;2022-07-06T08:18:33;1.42;;;1.30;;
8177;SDS011;4130;48.740;9.132;2022-07-06T08:21:00;4.00;;;1.50;;
8177;SDS011;4130;48.740;9.132;2022-07-06T08:23:26;1.60;;;1.35;;
8177;SDS011;4130;48.740;9.132;2022-07-06T08:25:53;2.10;;;1.70;;
8177;SDS011;4130;48.740;9.132;2022-07-06T08:28:21;2.55;;;1.60;;
8177;SDS011;4130;48.740;9.132;2022-07-06T08:30:48;3.03;;;1.50;;
8177;SDS011;4130;48.740;9.132;2022-07-06T08:33:15;1.60;;;1.50;;
8177;SDS011;4130;48.740;9.132;2022-07-06T08:35:41;2.42;;;1.60;;
8177;SDS011;4130;48.740;9.132;2022-07-06T08:38:08;4.15;;;1.52;;
8177;SDS011;4130;48.740;9.132;2022-07-06T08:40:35;2.60;;;1.65;;
8177;SDS011;4130;48.740;9.132;2022-07-06T08:43:06;1.95;;;1.73;;
8177;SDS011;4130;48.740;9.132;2022-07-06T08:45:34;3.95;;;1.60;;
8177;SDS011;4130;48.740;9.132;2022-07-06T08:48:03;1.73;;;1.63;;
8177;SDS011;4130;48.740;9.132;2022-07-06T08:50:31;2.17;;;1.90;;
8177;SDS011;4130;48.740;9.132;2022-07-06T08:53:00;2.70;;;1.73;;
8177;SDS011;4130;48.740;9.132;2022-07-06T08:55:28;2.50;;;1.60;;
8177;SDS011;4130;48.740;9.132;2022-07-06T08:57:55;3.00;;;1.58;;
8177;SDS011;4130;48.740;9.132;2022-07-06T09:00:22;2.00;;;1.73;;
8177;SDS011;4130;48.740;9.132;2022-07-06T09:02:51;2.72;;;1.65;;
8177;SDS011;4130;48.740;9.132;2022-07-06T09:05:22;1.77;;;1.67;;
8177;SDS011;4130;48.740;9.132;2022-07-06T09:07:50;3.67;;;1.65;;
8177;SDS011;4130;48.740;9.132;2022-07-06T09:10:19;3.58;;;1.85;;
8177;SDS011;4130;48.740;9.132;2022-07-06T09:12:46;3.25;;;1.80;;
8177;SDS011;4130;48.740;9.132;2022-07-06T09:15:14;1.98;;;1.83;;
8177;SDS011;4130;48.740;9.132;2022-07-06T09:17:41;1.63;;;1.52;;
8177;SDS011;4130;48.740;9.132;2022-07-06T09:20:11;2.05;;;1.67;;
8177;SDS011;4130;48.740;9.132;2022-07-06T09:22:39;3.67;;;2.15;;
8177;SDS011;4130;48.740;9.132;2022-07-06T09:25:07;2.42;;;1.80;;
8177;SDS011;4130;48.740;9.132;2022-07-06T09:27:38;2.85;;;1.73;;
8177;SDS011;4130;48.740;9.132;2022-07-06T09:30:07;2.38;;;1.50;;
8177;SDS011;4130;48.740;9.132;2022-07-06T09:32:38;1.90;;;1.70;;
8177;SDS011;4130;48.740;9.132;2022-07-06T09:35:06;2.67;;;1.40;;
8177;SDS011;4130;48.740;9.132;2022-07-06T09:37:35;1.63;;;1.52;;
8177;SDS011;4130;48.740;9.132;2022-07-06T09:40:03;2.10;;;1.60;;
8177;SDS011;4130;48.740;9.132;2022-07-06T09:42:43;3.35;;;2.10;;
8177;SDS011;4130;48.740;9.132;2022-07-06T09:45:09;1.98;;;1.70;;
8177;SDS011;4130;48.740;9.132;2022-07-06T09:47:36;1.90;;;1.58;;
8177;SDS011;4130;48.740;9.132;2022-07-06T09:50:04;3.28;;;1.60;;
8177;SDS011;4130;48.740;9.132;2022-07-06T09:52:34;2.10;;;1.80;;
8177;SDS011;4130;48.740;9.132;2022-07-06T09:55:05;2.60;;;1.65;;
8177;SDS011;4130;48.740;9.132;2022-07-06T09:57:39;2.30;;;1.90;;
8177;SDS011;4130;48.740;9.132;2022-07-06T10:00:18;3.30;;;2.65;;
8177;SDS011;4130;48.740;9.132;2022-07-06T10:02:45;3.63;;;2.28;;
8177;SDS011;4130;48.740;9.132;2022-07-06T10:05:13;1.88;;;1.77;;
8177;SDS011;4130;48.740;9.132;2022-07-06T10:07:43;3.53;;;2.38;;
8177;SDS011;4130;48.740;9.132;2022-07-06T10:10:11;2.00;;;1.80;;
8177;SDS011;4130;48.740;9.132;2022-07-06T10:12:38;2.72;;;1.90;;
8177;SDS011;4130;48.740;9.132;2022-07-06T10:15:08;2.10;;;2.00;;
8177;SDS011;4130;48.740;9.132;2022-07-06T10:17:36;2.05;;;1.80;;
8177;SDS011;4130;48.740;9.132;2022-07-06T10:20:05;2.20;;;2.00;;
8177;SDS011;4130;48.740;9.132;2022-07-06T10:22:34;3.92;;;1.80;;
8177;SDS011;4130;48.740;9.132;2022-07-06T10:25:03;2.95;;;1.80;;
8177;SDS011;4130;48.740;9.132;2022-07-06T10:27:31;3.53;;;1.73;;
8177;SDS011;4130;48.740;9.132;2022-07-06T10:29:59;4.15;;;2.03;;
8177;SDS011;4130;48.740;9.132;2022-07-06T10:32:26;1.85;;;1.60;;
8177;SDS011;4130;48.740;9.132;2022-07-06T10:34:54;2.05;;;1.85;;
8177;SDS011;4130;48.740;9.132;2022-07-06T10:37:22;2.25;;;1.70;;
8177;SDS011;4130;48.740;9.132;2022-07-06T10:39:51;1.83;;;1.73;;
8177;SDS011;4130;48.740;9.132;2022-07-06T10:42:40;2.25;;;1.80;;
8177;SDS011;4130;48.740;9.132;2022-07-06T10:45:08;1.58;;;1.48;;
8177;SDS011;4130;48.740;9.132;2022-07-06T10:47:36;2.28;;;1.67;;
8177;SDS011;4130;48.740;9.132;2022-07-06T10:50:03;5.93;;;2.03;;
8177;SDS011;4130;48.740;9.132;2022-07-06T10:55:28;4.35;;;2.30;;
8177;SDS011;4130;48.740;9.132;2022-07-06T10:57:57;3.22;;;1.88;;
8177;SDS011;4130;48.740;9.132;2022-07-06T11:00:25;2.78;;;1.80;;
8177;SDS011;4130;48.740;9.132;2022-07-06T11:02:52;2.58;;;1.67;;
8177;SDS011;4130;48.740;9.132;2022-07-06T11:08:08;4.47;;;1.85;;
8177;SDS011;4130;48.740;9.132;2022-07-06T11:10:45;2.13;;;1.63;;
8177;SDS011;4130;48.740;9.132;2022-07-06T11:13:25;3.40;;;1.88;;
8177;SDS011;4130;48.740;9.132;2022-07-06T11:15:59;5.93;;;2.03;;
8177;SDS011;4130;48.740;9.132;2022-07-06T11:18:28;1.95;;;1.85;;
8177;SDS011;4130;48.740;9.132;2022-07-06T11:23:58;2.72;;;1.98;;
8177;SDS011;4130;48.740;9.132;2022-07-06T11:26:25;2.85;;;1.70;;
8177;SDS011;4130;48.740;9.132;2022-07-06T11:28:54;2.40;;;2.17;;
8177;SDS011;4130;48.740;9.132;2022-07-06T11:31:21;2.08;;;1.70;;
8177;SDS011;4130;48.740;9.132;2022-07-06T11:33:48;3.55;;;1.90;;
8177;SDS011;4130;48.740;9.132;2022-07-06T11:36:16;4.97;;;2.05;;
8177;SDS011;4130;48.740;9.132;2022-07-06T11:38:44;2.00;;;1.80;;
8177;SDS011;4130;48.740;9.132;2022-07-06T11:41:11;2.15;;;1.90;;
8177;SDS011;4130;48.740;9.132;2022-07-06T11:43:40;2.75;;;1.85;;
8177;SDS011;4130;48.740;9.132;2022-07-06T11:46:21;4.13;;;2.33;;
8177;SDS011;4130;48.740;9.132;2022-07-06T11:48:49;2.28;;;1.80;;
8177;SDS011;4130;48.740;9.132;2022-07-06T11:51:17;2.17;;;1.92;;
8177;SDS011;4130;48.740;9.132;2022-07-06T11:53:44;3.35;;;2.10;;
8177;SDS011;4130;48.740;9.132;2022-07-06T11:56:14;2.17;;;1.92;;
8177;SDS011;4130;48.740;9.132;2022-07-06T11:58:41;4.47;;;2.03;;
8177;SDS011;4130;48.740;9.132;2022-07-06T12:01:11;2.90;;;2.28;;
8177;SDS011;4130;48.740;9.132;2022-07-06T12:03:41;3.00;;;1.77;;
8177;SDS011;4130;48.740;9.132;2022-07-06T12:06:12;2.00;;;1.67;;
8177;SDS011;4130;48.740;9.132;2022-07-06T12:08:40;2.75;;;2.10;;
8177;SDS011;4130;48.740;9.132;2022-07-06T12:11:08;2.92;;;2.00;;
8177;SDS011;4130;48.740;9.132;2022-07-06T12:13:36;3.55;;;2.25;;
8177;SDS011;4130;48.740;9.132;2022-07-06T12:16:09;3.70;;;2.60;;
8177;SDS011;4130;48.740;9.132;2022-07-06T12:18:37;2.05;;;1.80;;
8177;SDS011;4130;48.740;9.132;2022-07-06T12:21:06;3.65;;;2.28;;
8177;SDS011;4130;48.740;9.132;2022-07-06T12:23:40;2.88;;;2.00;;
8177;SDS011;4130;48.740;9.132;2022-07-06T12:26:08;3.10;;;2.10;;
8177;SDS011;4130;48.740;9.132;2022-07-06T12:28:36;4.05;;;2.05;;
8177;SDS011;4130;48.740;9.132;2022-07-06T12:31:03;2.92;;;2.38;;
8177;SDS011;4130;48.740;9.132;2022-07-06T12:33:30;6.70;;;2.33;;
8177;SDS011;4130;48.740;9.132;2022-07-06T12:35:56;3.95;;;2.22;;
8177;SDS011;4130;48.740;9.132;2022-07-06T12:38:35;2.08;;;1.83;;
8177;SDS011;4130;48.740;9.132;2022-07-06T12:41:09;3.63;;;2.67;;
8177;SDS011;4130;48.740;9.132;2022-07-06T12:43:36;7.05;;;2.40;;
8177;SDS011;4130;48.740;9.132;2022-07-06T12:46:23;4.15;;;2.30;;
8177;SDS011;4130;48.740;9.132;2022-07-06T12:48:54;3.30;;;1.95;;
8177;SDS011;4130;48.740;9.132;2022-07-06T12:51:22;3.42;;;2.30;;
8177;SDS011;4130;48.740;9.132;2022-07-06T12:53:50;4.85;;;2.00;;
8177;SDS011;4130;48.740;9.132;2022-07-06T12:56:17;2.55;;;1.92;;
8177;SDS011;4130;48.740;9.132;2022-07-06T12:58:57;3.08;;;2.22;;
8177;SDS011;4130;48.740;9.132;2022-07-06T13:01:24;3.38;;;2.10;;
8177;SDS011;4130;48.740;9.132;2022-07-06T13:03:54;2.50;;;1.92;;
8177;SDS011;4130;48.740;9.132;2022-07-06T13:06:31;2.30;;;2.05;;
8177;SDS011;4130;48.740;9.132;2022-07-06T13:09:01;2.08;;;1.88;;
8177;SDS011;4130;48.740;9.132;2022-07-06T13:11:28;2.78;;;1.80;;
8177;SDS011;4130;48.740;9.132;2022-07-06T13:13:55;4.22;;;1.98;;
8177;SDS011;4130;48.740;9.132;2022-07-06T13:16:22;2.40;;;1.92;;
8177;SDS011;4130;48.740;9.132;2022-07-06T13:18:55;3.47;;;1.95;;
8177;SDS011;4130;48.740;9.132;2022-07-06T13:21:22;4.32;;;1.90;;
8177;SDS011;4130;48.740;9.132;2022-07-06T13:23:48;2.45;;;1.63;;
8177;SDS011;4130;48.740;9.132;2022-07-06T13:26:16;3.45;;;1.80;;
8177;SDS011;4130;48.740;9.132;2022-07-06T13:28:43;2.00;;;1.80;;
8177;SDS011;4130;48.740;9.132;2022-07-06T13:31:11;3.63;;;1.60;;
8177;SDS011;4130;48.740;9.132;2022-07-06T13:33:37;3.97;;;2.22;;
8177;SDS011;4130;48.740;9.132;2022-07-06T13:36:04;2.90;;;1.90;;
8177;SDS011;4130;48.740;9.132;2022-07-06T13:38:31;3.65;;;2.17;;
8177;SDS011;4130;48.740;9.132;2022-07-06T13:40:58;3.08;;;1.75;;
8177;SDS011;4130;48.740;9.132;2022-07-06T13:43:26;2.08;;;1.98;;
8177;SDS011;4130;48.740;9.132;2022-07-06T13:46:00;2.78;;;1.60;;
8177;SDS011;4130;48.740;9.132;2022-07-06T13:48:27;1.67;;;1.52;;
8177;SDS011;4130;48.740;9.132;2022-07-06T13:50:54;1.83;;;1.55;;
8177;SDS011;4130;48.740;9.132;2022-07-06T13:53:21;2.97;;;1.80;;
8177;SDS011;4130;48.740;9.132;2022-07-06T13:55:48;2.38;;;1.77;;
8177;SDS011;4130;48.740;9.132;2022-07-06T13:58:14;2.35;;;1.75;;
8177;SDS011;4130;48.740;9.132;2022-07-06T14:00:43;2.63;;;1.83;;
8177;SDS011;4130;48.740;9.132;2022-07-06T14:03:09;3.30;;;1.77;;
8177;SDS011;4130;48.740;9.132;2022-07-06T14:05:36;2.47;;;1.80;;
8177;SDS011;4130;48.740;9.132;2022-07-06T14:08:03;2.03;;;1.83;;
8177;SDS011;4130;48.740;9.132;2022-07-06T14:10:30;2.05;;;1.52;;
8177;SDS011;4130;48.740;9.132;2022-07-06T14:12:57;1.80;;;1.70;;
8177;SDS011;4130;48.740;9.132;2022-07-06T14:15:24;4.88;;;1.70;;
8177;SDS011;4130;48.740;9.132;2022-07-06T14:17:52;3.33;;;1.80;;
8177;SDS011;4130;48.740;9.132;2022-07-06T14:20:19;2.80;;;1.70;;
8177;SDS011;4130;48.740;9.132;2022-07-06T14:22:45;4.10;;;1.80;;
8177;SDS011;4130;48.740;9.132;2022-07-06T14:25:12;7.18;;;1.95;;
8177;SDS011;4130;48.740;9.132;2022-07-06T14:27:39;3.38;;;1.80;;
8177;SDS011;4130;48.740;9.132;2022-07-06T14:30:06;2.85;;;2.03;;
8177;SDS011;4130;48.740;9.132;2022-07-06T14:32:34;2.17;;;1.63;;
8177;SDS011;4130;48.740;9.132;2022-07-06T14:35:02;6.53;;;1.63;;
8177;SDS011;4130;48.740;9.132;2022-07-06T14:37:29;1.92;;;1.67;;
8177;SDS011;4130;48.740;9.132;2022-07-06T14:39:56;4.13;;;2.03;;
8177;SDS011;4130;48.740;9.132;2022-07-06T14:42:23;3.67;;;1.60;;
8177;SDS011;4130;48.740;9.132;2022-07-06T14:44:49;3.28;;;1.30;;
8177;SDS011;4130;48.740;9.132;2022-07-06T14:47:16;1.35;;;1.30;;
8177;SDS011;4130;48.740;9.132;2022-07-06T14:49:43;2.10;;;1.50;;
8177;SDS011;4130;48.740;9.132;2022-07-06T14:52:11;3.13;;;1.73;;
8177;SDS011;4130;48.740;9.132;2022-07-06T14:54:38;3.88;;;1.60;;
8177;SDS011;4130;48.740;9.132;2022-07-06T14:57:05;3.30;;;1.75;;
8177;SDS011;4130;48.740;9.132;2022-07-06T14:59:33;1.90;;;1.50;;
8177;SDS011;4130;48.740;9.132;2022-07-06T15:02:00;2.72;;;1.75;;
8177;SDS011;4130;48.740;9.132;2022-07-06T15:04:26;2.80;;;1.60;;
8177;SDS011;4130;48.740;9.132;2022-07-06T15:06:53;1.95;;;1.65;;
8177;SDS011;4130;48.740;9.132;2022-07-06T15:09:22;2.42;;;1.48;;
8177;SDS011;4130;48.740;9.132;2022-07-06T15:11:49;1.75;;;1.52;;
8177;SDS011;4130;48.740;9.132;2022-07-06T15:14:16;3.25;;;1.55;;
8177;SDS011;4130;48.740;9.132;2022-07-06T15:16:43;2.42;;;1.73;;
8177;SDS011;4130;48.740;9.132;2022-07-06T15:19:10;3.33;;;1.30;;
8177;SDS011;4130;48.740;9.132;2022-07-06T15:21:36;1.85;;;1.67;;
8177;SDS011;4130;48.740;9.132;2022-07-06T15:24:04;1.50;;;1.40;;
8177;SDS011;4130;48.740;9.132;2022-07-06T15:26:32;3.33;;;1.40;;
8177;SDS011;4130;48.740;9.132;2022-07-06T15:28:59;2.70;;;1.73;;